sensor_id;sensor_type;location;lat;lon;timestamp;P1;durP1;ratioP1;P2;durP2;ratioP2
25301;SDS011;13243;50.888;4.724;2024-01-15T00:01:43;43.75;;;19.40;;
25301;SDS011;13243;50.888;4.724;2024-01-15T00:06:45;40.47;;;19.33;;
25301;SDS011;13243;50.888;4.724;2024-01-15T00:11:48;46.13;;;19.30;;
25301;SDS011;13243;50.888;4.724;2024-01-15T00:16:49;42.13;;;19.65;;
25301;SDS011;13243;50.888;4.724;2024-01-15T00:21:52;48.22;;;19.45;;
25301;SDS011;13243;50.888;4.724;2024-01-15T00:26:54;49.78;;;19.70;;
25301;SDS011;13243;50.888;4.724;2024-01-15T00:31:56;54.65;;;19.67;;
25301;SDS011;13243;50.888;4.724;2024-01-15T00:36:59;45.28;;;19.25;;
25301;SDS011;13243;50.888;4.724;2024-01-15T00:42:01;45.78;;;18.35;;
25301;SDS011;13243;50.888;4.724;2024-01-15T00:47:02;42.63;;;18.90;;
25301;SDS011;13243;50.888;4.724;2024-01-15T00:52:05;49.10;;;18.20;;
25301;SDS011;13243;50.888;4.724;2024-01-15T00:57:07;41.10;;;17.15;;
25301;SDS011;13243;50.888;4.724;2024-01-15T01:02:09;38.05;;;15.35;;
25301;SDS011;13243;50.888;4.724;2024-01-15T01:07:11;36.67;;;14.63;;
25301;SDS011;13243;50.888;4.724;2024-01-15T01:12:13;32.20;;;14.38;;
25301;SDS011;13243;50.888;4.724;2024-01-15T01:17:15;32.30;;;15.00;;
25301;SDS011;13243;50.888;4.724;2024-01-15T01:22:17;34.40;;;15.60;;
25301;SDS011;13243;50.888;4.724;2024-01-15T01:27:19;29.58;;;14.15;;
25301;SDS011;13243;50.888;4.724;2024-01-15T01:32:20;29.35;;;14.15;;
25301;SDS011;13243;50.888;4.724;2024-01-15T01:37:22;29.70;;;14.52;;
25301;SDS011;13243;50.888;4.724;2024-01-15T01:42:24;30.30;;;13.73;;
25301;SDS011;13243;50.888;4.724;2024-01-15T01:47:26;28.30;;;14.20;;
25301;SDS011;13243;50.888;4.724;2024-01-15T01:52:29;26.10;;;12.93;;
25301;SDS011;13243;50.888;4.724;2024-01-15T01:57:31;31.45;;;12.48;;
25301;SDS011;13243;50.888;4.724;2024-01-15T02:02:35;25.98;;;11.60;;
25301;SDS011;13243;50.888;4.724;2024-01-15T02:07:37;28.30;;;12.30;;
25301;SDS011;13243;50.888;4.724;2024-01-15T02:12:39;32.00;;;12.25;;
25301;SDS011;13243;50.888;4.724;2024-01-15T02:18:03;22.52;;;11.52;;
25301;SDS011;13243;50.888;4.724;2024-01-15T02:23:07;20.83;;;11.82;;
25301;SDS011;13243;50.888;4.724;2024-01-15T02:28:12;23.13;;;11.45;;
25301;SDS011;13243;50.888;4.724;2024-01-15T02:33:15;24.50;;;11.52;;
25301;SDS011;13243;50.888;4.724;2024-01-15T02:38:17;21.20;;;10.55;;
25301;SDS011;13243;50.888;4.724;2024-01-15T02:43:20;23.00;;;10.07;;
25301;SDS011;13243;50.888;4.724;2024-01-15T02:48:22;24.73;;;10.95;;
25301;SDS011;13243;50.888;4.724;2024-01-15T02:53:24;16.67;;;9.85;;
25301;SDS011;13243;50.888;4.724;2024-01-15T02:58:26;15.88;;;9.32;;
25301;SDS011;13243;50.888;4.724;2024-01-15T03:03:27;22.20;;;10.25;;
25301;SDS011;13243;50.888;4.724;2024-01-15T03:08:29;13.77;;;8.65;;
25301;SDS011;13243;50.888;4.724;2024-01-15T03:13:35;17.63;;;10.13;;
25301;SDS011;13243;50.888;4.724;2024-01-15T03:18:37;18.80;;;10.15;;
25301;SDS011;13243;50.888;4.724;2024-01-15T03:23:39;19.08;;;10.07;;
25301;SDS011;13243;50.888;4.724;2024-01-15T03:28:41;19.40;;;10.00;;
25301;SDS011;13243;50.888;4.724;2024-01-15T03:33:43;17.40;;;9.50;;
25301;SDS011;13243;50.888;4.724;2024-01-15T03:38:45;19.00;;;9.60;;
25301;SDS011;13243;50.888;4.724;2024-01-15T03:43:48;18.05;;;9.60;;
25301;SDS011;13243;50.888;4.724;2024-01-15T03:48:50;17.73;;;9.13;;
25301;SDS011;13243;50.888;4.724;2024-01-15T03:53:52;20.95;;;10.25;;
25301;SDS011;13243;50.888;4.724;2024-01-15T03:58:53;22.58;;;9.65;;
25301;SDS011;13243;50.888;4.724;2024-01-15T04:03:55;19.10;;;9.63;;
25301;SDS011;13243;50.888;4.724;2024-01-15T04:08:58;23.38;;;11.32;;
25301;SDS011;13243;50.888;4.724;2024-01-15T04:14:00;27.90;;;12.13;;
25301;SDS011;13243;50.888;4.724;2024-01-15T04:19:02;27.60;;;13.80;;
25301;SDS011;13243;50.888;4.724;2024-01-15T04:24:04;25.35;;;13.73;;
25301;SDS011;13243;50.888;4.724;2024-01-15T04:29:06;27.75;;;14.55;;
25301;SDS011;13243;50.888;4.724;2024-01-15T04:34:08;35.15;;;15.10;;
25301;SDS011;13243;50.888;4.724;2024-01-15T04:39:10;36.67;;;16.13;;
25301;SDS011;13243;50.888;4.724;2024-01-15T04:44:13;31.50;;;16.35;;
25301;SDS011;13243;50.888;4.724;2024-01-15T04:49:15;33.83;;;16.80;;
25301;SDS011;13243;50.888;4.724;2024-01-15T04:54:17;35.25;;;17.15;;
25301;SDS011;13243;50.888;4.724;2024-01-15T04:59:19;34.75;;;17.10;;
25301;SDS011;13243;50.888;4.724;2024-01-15T05:04:21;35.97;;;16.77;;
25301;SDS011;13243;50.888;4.724;2024-01-15T05:09:23;40.00;;;17.90;;
25301;SDS011;13243;50.888;4.724;2024-01-15T05:14:25;43.45;;;18.17;;
25301;SDS011;13243;50.888;4.724;2024-01-15T05:19:27;33.55;;;16.95;;
25301;SDS011;13243;50.888;4.724;2024-01-15T05:24:29;37.08;;;16.83;;
25301;SDS011;13243;50.888;4.724;2024-01-15T05:29:31;34.72;;;15.63;;
25301;SDS011;13243;50.888;4.724;2024-01-15T05:34:33;33.90;;;16.67;;
25301;SDS011;13243;50.888;4.724;2024-01-15T05:39:36;33.72;;;17.38;;
25301;SDS011;13243;50.888;4.724;2024-01-15T05:44:38;36.50;;;17.23;;
25301;SDS011;13243;50.888;4.724;2024-01-15T05:49:40;31.27;;;15.20;;
25301;SDS011;13243;50.888;4.724;2024-01-15T05:54:42;31.05;;;13.80;;
25301;SDS011;13243;50.888;4.724;2024-01-15T05:59:44;33.63;;;17.98;;
25301;SDS011;13243;50.888;4.724;2024-01-15T06:04:46;29.98;;;16.77;;
25301;SDS011;13243;50.888;4.724;2024-01-15T06:09:48;23.60;;;10.85;;
25301;SDS011;13243;50.888;4.724;2024-01-15T06:14:50;19.77;;;9.75;;
25301;SDS011;13243;50.888;4.724;2024-01-15T06:19:52;19.08;;;8.93;;
25301;SDS011;13243;50.888;4.724;2024-01-15T06:24:54;26.77;;;8.30;;
25301;SDS011;13243;50.888;4.724;2024-01-15T06:29:57;16.02;;;7.72;;
25301;SDS011;13243;50.888;4.724;2024-01-15T06:34:58;14.93;;;6.85;;
25301;SDS011;13243;50.888;4.724;2024-01-15T06:40:00;13.73;;;6.57;;
25301;SDS011;13243;50.888;4.724;2024-01-15T06:45:03;13.07;;;5.30;;
25301;SDS011;13243;50.888;4.724;2024-01-15T06:50:05;11.48;;;5.60;;
25301;SDS011;13243;50.888;4.724;2024-01-15T06:55:08;9.10;;;4.72;;
25301;SDS011;13243;50.888;4.724;2024-01-15T07:00:10;15.15;;;5.10;;
25301;SDS011;13243;50.888;4.724;2024-01-15T07:05:13;7.85;;;4.28;;
25301;SDS011;13243;50.888;4.724;2024-01-15T07:10:15;13.77;;;4.50;;
25301;SDS011;13243;50.888;4.724;2024-01-15T07:15:17;7.50;;;3.30;;
25301;SDS011;13243;50.888;4.724;2024-01-15T07:20:19;11.60;;;4.18;;
25301;SDS011;13243;50.888;4.724;2024-01-15T07:25:21;13.23;;;4.30;;
25301;SDS011;13243;50.888;4.724;2024-01-15T07:30:23;9.13;;;3.50;;
25301;SDS011;13243;50.888;4.724;2024-01-15T07:35:25;18.15;;;4.25;;
25301;SDS011;13243;50.888;4.724;2024-01-15T07:40:27;12.13;;;4.00;;
25301;SDS011;13243;50.888;4.724;2024-01-15T07:45:30;15.90;;;3.90;;
25301;SDS011;13243;50.888;4.724;2024-01-15T07:50:32;12.48;;;5.00;;
25301;SDS011;13243;50.888;4.724;2024-01-15T07:55:35;10.77;;;4.70;;
25301;SDS011;13243;50.888;4.724;2024-01-15T08:00:37;15.43;;;4.68;;
25301;SDS011;13243;50.888;4.724;2024-01-15T08:05:39;21.05;;;5.05;;
25301;SDS011;13243;50.888;4.724;2024-01-15T08:10:41;11.38;;;4.07;;
25301;SDS011;13243;50.888;4.724;2024-01-15T08:15:43;9.02;;;4.22;;
25301;SDS011;13243;50.888;4.724;2024-01-15T08:20:45;11.55;;;4.30;;
25301;SDS011;13243;50.888;4.724;2024-01-15T08:25:47;10.65;;;4.85;;
25301;SDS011;13243;50.888;4.724;2024-01-15T08:30:50;15.23;;;4.80;;
25301;SDS011;13243;50.888;4.724;2024-01-15T08:35:52;12.50;;;4.80;;
25301;SDS011;13243;50.888;4.724;2024-01-15T08:40:54;7.95;;;3.60;;
25301;SDS011;13243;50.888;4.724;2024-01-15T08:45:58;7.13;;;3.25;;
25301;SDS011;13243;50.888;4.724;2024-01-15T08:51:00;18.27;;;4.95;;
25301;SDS011;13243;50.888;4.724;2024-01-15T08:56:02;12.23;;;3.75;;
25301;SDS011;13243;50.888;4.724;2024-01-15T09:01:04;13.80;;;3.50;;
25301;SDS011;13243;50.888;4.724;2024-01-15T09:06:07;10.35;;;3.83;;
25301;SDS011;13243;50.888;4.724;2024-01-15T09:11:10;10.02;;;3.00;;
25301;SDS011;13243;50.888;4.724;2024-01-15T09:16:13;8.57;;;3.00;;
25301;SDS011;13243;50.888;4.724;2024-01-15T09:21:15;15.65;;;3.13;;
25301;SDS011;13243;50.888;4.724;2024-01-15T09:27:35;14.20;;;3.30;;
25301;SDS011;13243;50.888;4.724;2024-01-15T09:32:37;13.25;;;3.97;;
25301;SDS011;13243;50.888;4.724;2024-01-15T09:37:39;11.90;;;3.67;;
25301;SDS011;13243;50.888;4.724;2024-01-15T09:42:48;10.18;;;3.40;;
25301;SDS011;13243;50.888;4.724;2024-01-15T09:47:51;16.33;;;4.25;;
25301;SDS011;13243;50.888;4.724;2024-01-15T09:52:54;15.10;;;2.50;;
25301;SDS011;13243;50.888;4.724;2024-01-15T09:57:59;15.50;;;2.63;;
25301;SDS011;13243;50.888;4.724;2024-01-15T10:03:03;10.38;;;3.15;;
25301;SDS011;13243;50.888;4.724;2024-01-15T10:08:06;11.82;;;3.08;;
25301;SDS011;13243;50.888;4.724;2024-01-15T10:13:08;12.85;;;3.03;;
25301;SDS011;13243;50.888;4.724;2024-01-15T10:18:11;12.90;;;4.15;;
25301;SDS011;13243;50.888;4.724;2024-01-15T10:23:14;10.10;;;2.70;;
25301;SDS011;13243;50.888;4.724;2024-01-15T10:28:16;7.28;;;2.67;;
25301;SDS011;13243;50.888;4.724;2024-01-15T10:33:23;14.07;;;2.67;;
25301;SDS011;13243;50.888;4.724;2024-01-15T10:38:28;9.40;;;2.92;;
25301;SDS011;13243;50.888;4.724;2024-01-15T10:43:30;11.45;;;2.95;;
25301;SDS011;13243;50.888;4.724;2024-01-15T10:48:32;14.05;;;3.63;;
25301;SDS011;13243;50.888;4.724;2024-01-15T10:53:38;6.93;;;1.92;;
25301;SDS011;13243;50.888;4.724;2024-01-15T10:58:41;10.20;;;2.22;;
25301;SDS011;13243;50.888;4.724;2024-01-15T11:03:44;12.50;;;2.78;;
25301;SDS011;13243;50.888;4.724;2024-01-15T11:08:49;8.55;;;2.03;;
25301;SDS011;13243;50.888;4.724;2024-01-15T11:13:53;11.55;;;2.35;;
25301;SDS011;13243;50.888;4.724;2024-01-15T11:24:01;10.77;;;2.65;;
25301;SDS011;13243;50.888;4.724;2024-01-15T11:29:04;26.42;;;7.32;;
25301;SDS011;13243;50.888;4.724;2024-01-15T11:34:12;10.23;;;2.05;;
25301;SDS011;13243;50.888;4.724;2024-01-15T11:44:28;12.50;;;2.55;;
25301;SDS011;13243;50.888;4.724;2024-01-15T11:55:22;9.35;;;2.70;;
25301;SDS011;13243;50.888;4.724;2024-01-15T12:00:29;9.23;;;2.03;;
25301;SDS011;13243;50.888;4.724;2024-01-15T12:05:31;11.23;;;2.33;;
25301;SDS011;13243;50.888;4.724;2024-01-15T12:10:33;5.32;;;2.03;;
25301;SDS011;13243;50.888;4.724;2024-01-15T12:15:35;9.48;;;2.05;;
25301;SDS011;13243;50.888;4.724;2024-01-15T12:20:37;8.25;;;1.88;;
25301;SDS011;13243;50.888;4.724;2024-01-15T12:25:41;11.07;;;2.65;;
25301;SDS011;13243;50.888;4.724;2024-01-15T12:30:46;12.32;;;2.08;;
25301;SDS011;13243;50.888;4.724;2024-01-15T12:35:54;7.63;;;1.70;;
25301;SDS011;13243;50.888;4.724;2024-01-15T12:40:56;6.43;;;1.83;;
25301;SDS011;13243;50.888;4.724;2024-01-15T12:45:58;16.73;;;2.80;;
25301;SDS011;13243;50.888;4.724;2024-01-15T12:51:00;9.60;;;1.98;;
25301;SDS011;13243;50.888;4.724;2024-01-15T12:56:02;10.32;;;1.70;;
25301;SDS011;13243;50.888;4.724;2024-01-15T13:01:04;8.00;;;2.40;;
25301;SDS011;13243;50.888;4.724;2024-01-15T13:06:06;11.05;;;2.70;;
25301;SDS011;13243;50.888;4.724;2024-01-15T13:11:08;14.82;;;2.60;;
25301;SDS011;13243;50.888;4.724;2024-01-15T13:16:11;8.18;;;1.65;;
25301;SDS011;13243;50.888;4.724;2024-01-15T13:21:13;8.25;;;1.75;;
25301;SDS011;13243;50.888;4.724;2024-01-15T13:26:15;5.78;;;2.20;;
25301;SDS011;13243;50.888;4.724;2024-01-15T13:31:19;5.55;;;2.13;;
25301;SDS011;13243;50.888;4.724;2024-01-15T13:36:22;9.52;;;1.95;;
25301;SDS011;13243;50.888;4.724;2024-01-15T13:41:24;6.20;;;2.22;;
25301;SDS011;13243;50.888;4.724;2024-01-15T13:46:28;10.57;;;2.42;;
25301;SDS011;13243;50.888;4.724;2024-01-15T13:51:33;5.97;;;2.67;;
25301;SDS011;13243;50.888;4.724;2024-01-15T13:56:36;8.98;;;2.95;;
25301;SDS011;13243;50.888;4.724;2024-01-15T14:01:38;4.18;;;2.35;;
25301;SDS011;13243;50.888;4.724;2024-01-15T14:06:40;2.70;;;1.38;;
25301;SDS011;13243;50.888;4.724;2024-01-15T14:11:42;2.78;;;1.30;;
25301;SDS011;13243;50.888;4.724;2024-01-15T14:16:44;4.60;;;1.33;;
25301;SDS011;13243;50.888;4.724;2024-01-15T14:21:46;2.53;;;1.20;;
25301;SDS011;13243;50.888;4.724;2024-01-15T14:26:49;5.22;;;1.20;;
25301;SDS011;13243;50.888;4.724;2024-01-15T14:31:51;1.83;;;0.90;;
25301;SDS011;13243;50.888;4.724;2024-01-15T14:36:53;8.98;;;1.55;;
25301;SDS011;13243;50.888;4.724;2024-01-15T14:41:56;6.63;;;1.92;;
25301;SDS011;13243;50.888;4.724;2024-01-15T14:46:58;9.18;;;2.25;;
25301;SDS011;13243;50.888;4.724;2024-01-15T14:52:00;8.07;;;4.25;;
25301;SDS011;13243;50.888;4.724;2024-01-15T14:57:02;7.13;;;2.75;;
25301;SDS011;13243;50.888;4.724;2024-01-15T15:02:05;5.75;;;2.63;;
25301;SDS011;13243;50.888;4.724;2024-01-15T15:07:07;9.30;;;3.08;;
25301;SDS011;13243;50.888;4.724;2024-01-15T15:12:10;6.20;;;3.40;;
25301;SDS011;13243;50.888;4.724;2024-01-15T15:17:12;8.95;;;4.50;;
25301;SDS011;13243;50.888;4.724;2024-01-15T15:22:14;13.25;;;4.47;;
25301;SDS011;13243;50.888;4.724;2024-01-15T15:27:16;9.73;;;3.05;;
25301;SDS011;13243;50.888;4.724;2024-01-15T15:32:18;10.13;;;3.05;;
25301;SDS011;13243;50.888;4.724;2024-01-15T15:37:20;11.52;;;2.70;;
25301;SDS011;13243;50.888;4.724;2024-01-15T15:42:22;17.00;;;6.60;;
25301;SDS011;13243;50.888;4.724;2024-01-15T15:47:25;12.55;;;3.60;;
25301;SDS011;13243;50.888;4.724;2024-01-15T15:52:27;12.18;;;4.22;;
25301;SDS011;13243;50.888;4.724;2024-01-15T15:57:29;9.13;;;5.68;;
25301;SDS011;13243;50.888;4.724;2024-01-15T16:02:33;5.78;;;3.45;;
25301;SDS011;13243;50.888;4.724;2024-01-15T16:07:36;13.15;;;4.00;;
25301;SDS011;13243;50.888;4.724;2024-01-15T16:12:38;12.07;;;5.00;;
25301;SDS011;13243;50.888;4.724;2024-01-15T16:17:40;8.18;;;3.42;;
25301;SDS011;13243;50.888;4.724;2024-01-15T16:23:02;11.82;;;3.03;;
25301;SDS011;13243;50.888;4.724;2024-01-15T16:28:25;31.08;;;13.32;;
25301;SDS011;13243;50.888;4.724;2024-01-15T16:33:27;15.98;;;4.60;;
25301;SDS011;13243;50.888;4.724;2024-01-15T16:38:29;12.15;;;3.55;;
25301;SDS011;13243;50.888;4.724;2024-01-15T16:43:31;14.88;;;3.25;;
25301;SDS011;13243;50.888;4.724;2024-01-15T16:48:33;21.50;;;7.20;;
25301;SDS011;13243;50.888;4.724;2024-01-15T16:53:35;58.40;;;20.75;;
25301;SDS011;13243;50.888;4.724;2024-01-15T16:58:37;98.45;;;35.60;;
25301;SDS011;13243;50.888;4.724;2024-01-15T17:03:39;18.75;;;5.20;;
25301;SDS011;13243;50.888;4.724;2024-01-15T17:08:42;15.82;;;4.18;;
25301;SDS011;13243;50.888;4.724;2024-01-15T17:13:44;11.95;;;4.03;;
25301;SDS011;13243;50.888;4.724;2024-01-15T17:18:46;20.30;;;4.28;;
25301;SDS011;13243;50.888;4.724;2024-01-15T17:23:48;12.68;;;6.10;;
25301;SDS011;13243;50.888;4.724;2024-01-15T17:28:50;20.88;;;7.20;;
25301;SDS011;13243;50.888;4.724;2024-01-15T17:33:51;17.30;;;6.05;;
25301;SDS011;13243;50.888;4.724;2024-01-15T17:38:53;21.42;;;7.15;;
25301;SDS011;13243;50.888;4.724;2024-01-15T17:43:55;37.63;;;11.43;;
25301;SDS011;13243;50.888;4.724;2024-01-15T17:48:57;22.88;;;8.25;;
25301;SDS011;13243;50.888;4.724;2024-01-15T17:54:04;30.30;;;9.80;;
25301;SDS011;13243;50.888;4.724;2024-01-15T17:59:10;35.95;;;12.02;;
25301;SDS011;13243;50.888;4.724;2024-01-15T18:04:12;11.65;;;5.32;;
25301;SDS011;13243;50.888;4.724;2024-01-15T18:09:16;11.68;;;4.28;;
25301;SDS011;13243;50.888;4.724;2024-01-15T18:14:18;17.48;;;5.45;;
25301;SDS011;13243;50.888;4.724;2024-01-15T18:19:20;15.77;;;6.57;;
25301;SDS011;13243;50.888;4.724;2024-01-15T18:24:22;10.55;;;3.53;;
25301;SDS011;13243;50.888;4.724;2024-01-15T18:29:24;8.40;;;3.10;;
25301;SDS011;13243;50.888;4.724;2024-01-15T18:34:26;8.63;;;3.50;;
25301;SDS011;13243;50.888;4.724;2024-01-15T18:39:28;9.05;;;4.65;;
25301;SDS011;13243;50.888;4.724;2024-01-15T18:44:30;13.18;;;5.50;;
25301;SDS011;13243;50.888;4.724;2024-01-15T18:49:32;13.25;;;7.82;;
25301;SDS011;13243;50.888;4.724;2024-01-15T18:54:34;16.80;;;9.55;;
25301;SDS011;13243;50.888;4.724;2024-01-15T18:59:36;17.95;;;9.57;;
25301;SDS011;13243;50.888;4.724;2024-01-15T19:04:41;21.08;;;11.48;;
25301;SDS011;13243;50.888;4.724;2024-01-15T19:09:43;22.95;;;11.73;;
25301;SDS011;13243;50.888;4.724;2024-01-15T19:14:45;26.90;;;11.10;;
25301;SDS011;13243;50.888;4.724;2024-01-15T19:19:48;20.55;;;11.00;;
25301;SDS011;13243;50.888;4.724;2024-01-15T19:24:52;24.55;;;10.55;;
25301;SDS011;13243;50.888;4.724;2024-01-15T19:29:54;20.10;;;11.15;;
25301;SDS011;13243;50.888;4.724;2024-01-15T19:34:56;23.65;;;10.93;;
25301;SDS011;13243;50.888;4.724;2024-01-15T19:39:58;27.75;;;10.95;;
25301;SDS011;13243;50.888;4.724;2024-01-15T19:45:00;19.95;;;8.85;;
25301;SDS011;13243;50.888;4.724;2024-01-15T19:50:02;18.38;;;8.63;;
25301;SDS011;13243;50.888;4.724;2024-01-15T19:55:05;25.75;;;7.70;;
25301;SDS011;13243;50.888;4.724;2024-01-15T20:00:07;19.02;;;6.97;;
25301;SDS011;13243;50.888;4.724;2024-01-15T20:05:10;20.65;;;7.03;;
25301;SDS011;13243;50.888;4.724;2024-01-15T20:10:15;33.70;;;6.80;;
25301;SDS011;13243;50.888;4.724;2024-01-15T20:15:17;14.95;;;6.07;;
25301;SDS011;13243;50.888;4.724;2024-01-15T20:20:19;23.90;;;7.57;;
25301;SDS011;13243;50.888;4.724;2024-01-15T20:25:21;19.95;;;6.00;;
25301;SDS011;13243;50.888;4.724;2024-01-15T20:30:23;19.65;;;4.80;;
25301;SDS011;13243;50.888;4.724;2024-01-15T20:35:25;18.85;;;5.45;;
25301;SDS011;13243;50.888;4.724;2024-01-15T20:40:27;23.15;;;5.88;;
25301;SDS011;13243;50.888;4.724;2024-01-15T20:45:31;14.70;;;4.70;;
25301;SDS011;13243;50.888;4.724;2024-01-15T20:50:34;14.95;;;4.90;;
25301;SDS011;13243;50.888;4.724;2024-01-15T20:55:36;16.45;;;4.35;;
25301;SDS011;13243;50.888;4.724;2024-01-15T21:00:38;22.25;;;4.85;;
25301;SDS011;13243;50.888;4.724;2024-01-15T21:05:41;21.13;;;4.55;;
25301;SDS011;13243;50.888;4.724;2024-01-15T21:10:44;12.07;;;3.70;;
25301;SDS011;13243;50.888;4.724;2024-01-15T21:15:46;19.70;;;5.20;;
25301;SDS011;13243;50.888;4.724;2024-01-15T21:20:48;27.42;;;6.53;;
25301;SDS011;13243;50.888;4.724;2024-01-15T21:25:50;18.95;;;5.80;;
25301;SDS011;13243;50.888;4.724;2024-01-15T21:30:53;25.08;;;5.57;;
25301;SDS011;13243;50.888;4.724;2024-01-15T21:35:56;21.65;;;6.20;;
25301;SDS011;13243;50.888;4.724;2024-01-15T21:40:58;17.63;;;6.28;;
25301;SDS011;13243;50.888;4.724;2024-01-15T21:46:00;21.33;;;5.10;;
25301;SDS011;13243;50.888;4.724;2024-01-15T21:51:03;16.75;;;6.22;;
25301;SDS011;13243;50.888;4.724;2024-01-15T21:56:05;27.60;;;6.03;;
25301;SDS011;13243;50.888;4.724;2024-01-15T22:01:07;21.35;;;6.60;;
25301;SDS011;13243;50.888;4.724;2024-01-15T22:06:10;18.88;;;4.90;;
25301;SDS011;13243;50.888;4.724;2024-01-15T22:11:13;22.38;;;5.22;;
25301;SDS011;13243;50.888;4.724;2024-01-15T22:16:15;20.45;;;5.82;;
25301;SDS011;13243;50.888;4.724;2024-01-15T22:21:17;22.30;;;5.03;;
25301;SDS011;13243;50.888;4.724;2024-01-15T22:26:19;24.33;;;4.82;;
25301;SDS011;13243;50.888;4.724;2024-01-15T22:31:21;17.52;;;4.55;;
25301;SDS011;13243;50.888;4.724;2024-01-15T22:36:23;20.92;;;5.72;;
25301;SDS011;13243;50.888;4.724;2024-01-15T22:41:25;16.10;;;5.70;;
25301;SDS011;13243;50.888;4.724;2024-01-15T22:46:27;17.58;;;5.75;;
25301;SDS011;13243;50.888;4.724;2024-01-15T22:51:29;14.95;;;5.20;;
25301;SDS011;13243;50.888;4.724;2024-01-15T22:56:31;21.92;;;6.03;;
25301;SDS011;13243;50.888;4.724;2024-01-15T23:01:33;16.15;;;5.30;;
25301;SDS011;13243;50.888;4.724;2024-01-15T23:06:35;16.17;;;6.25;;
25301;SDS011;13243;50.888;4.724;2024-01-15T23:11:37;15.82;;;5.18;;
25301;SDS011;13243;50.888;4.724;2024-01-15T23:16:39;15.15;;;5.40;;
25301;SDS011;13243;50.888;4.724;2024-01-15T23:21:44;23.33;;;5.80;;
25301;SDS011;13243;50.888;4.724;2024-01-15T23:26:46;18.73;;;5.75;;
25301;SDS011;13243;50.888;4.724;2024-01-15T23:31:48;18.48;;;5.47;;
25301;SDS011;13243;50.888;4.724;2024-01-15T23:36:50;16.17;;;5.22;;
25301;SDS011;13243;50.888;4.724;2024-01-15T23:41:51;26.42;;;6.28;;
25301;SDS011;13243;50.888;4.724;2024-01-15T23:46:54;19.67;;;5.72;;
25301;SDS011;13243;50.888;4.724;2024-01-15T23:51:55;18.23;;;5.90;;
25301;SDS011;13243;50.888;4.724;2024-01-15T23:56:57;15.70;;;5.53;;
